Time;durP1;ratioP1;P1;durP2;ratioP2;P2;SDS_P1;SDS_P2;PMS_P1;PMS_P2;Temp;Humidity;BMP_temperature;BMP_pressure;BME280_temperature;BME280_humidity;BME280_pressure;Samples;Min_cycle;Max_cycle;Signal;HPM_P1;HPM_P2
2021/01/08 00:00:29;;;;;;;17.80;10.50;;;;;;;8.88;84.43;99370.19;5086965;28;20027;-77
2021/01/08 00:02:55;;;;;;;13.98;9.07;;;;;;;8.98;84.17;99365.19;5087346;28;20052;-77
2021/01/08 00:05:21;;;;;;;9.88;6.35;;;;;;;9.16;81.27;99369.03;5086731;28;20352;-77
2021/01/08 00:07:47;;;;;;;10.48;7.78;;;;;;;9.13;81.94;99369.81;5087311;28;20036;-77
2021/01/08 00:10:12;;;;;;;22.13;12.80;;;;;;;9.14;82.54;99376.94;5086387;28;20024;-77
2021/01/08 00:12:38;;;;;;;20.08;12.80;;;;;;;9.19;83.11;99380.19;5085952;28;20413;-77
2021/01/08 00:15:06;;;;;;;18.50;11.65;;;;;;;9.18;83.64;99386.13;5084641;28;20032;-77
2021/01/08 00:17:33;;;;;;;22.13;11.68;;;;;;;9.09;84.42;99380.03;5085276;28;20020;-77
2021/01/08 00:19:59;;;;;;;12.27;8.00;;;;;;;9.09;83.83;99382.81;5085721;28;20122;-78
2021/01/08 00:22:28;;;;;;;17.40;10.10;;;;;;;9.07;83.67;99382.41;5086309;28;20031;-77
2021/01/08 00:24:54;;;;;;;12.05;8.93;;;;;;;9.08;83.99;99384.00;5086853;28;20034;-78
2021/01/08 00:27:20;;;;;;;18.30;10.30;;;;;;;9.14;84.13;99390.81;5086510;28;20122;-77
2021/01/08 00:29:46;;;;;;;12.13;8.77;;;;;;;9.13;84.06;99398.34;5085664;28;20032;-77
2021/01/08 00:32:13;;;;;;;16.83;8.90;;;;;;;9.09;83.81;99408.59;5086195;28;20031;-77
2021/01/08 00:34:39;;;;;;;17.42;9.80;;;;;;;9.08;83.66;99406.19;5086323;28;20031;-78
2021/01/08 00:37:23;;;;;;;17.40;8.25;;;;;;;9.07;83.09;99399.03;5084802;28;20024;-78
2021/01/08 00:39:48;;;;;;;11.48;7.57;;;;;;;9.06;82.88;99386.34;5105012;28;20024;-77
2021/01/08 00:42:14;;;;;;;15.07;9.13;;;;;;;9.07;82.99;99390.72;5083669;28;20048;-78
2021/01/08 00:44:39;;;;;;;8.73;6.82;;;;;;;9.16;83.27;99392.06;5084316;28;20438;-77
2021/01/08 00:47:06;;;;;;;12.70;8.40;;;;;;;9.26;82.72;99382.28;5084973;28;20370;-78
2021/01/08 00:49:32;;;;;;;11.30;7.10;;;;;;;9.19;82.59;99384.97;5084725;28;20112;-78
2021/01/08 00:51:57;;;;;;;8.50;6.30;;;;;;;9.20;82.53;99381.00;5078914;28;20060;-78
2021/01/08 00:54:23;;;;;;;11.38;7.90;;;;;;;9.25;82.36;99380.69;5078926;28;20376;-77
2021/01/08 00:56:49;;;;;;;15.55;7.95;;;;;;;9.22;82.67;99372.31;5078309;28;20043;-77
2021/01/08 00:59:14;;;;;;;20.67;10.77;;;;;;;9.27;82.60;99380.31;5077756;28;20178;-77
2021/01/08 01:01:40;;;;;;;23.73;12.50;;;;;;;9.26;83.01;99379.50;5076563;28;20205;-78
2021/01/08 01:04:06;;;;;;;12.48;6.10;;;;;;;9.44;82.17;99391.69;5078075;28;20058;-78
2021/01/08 01:06:33;;;;;;;8.45;5.25;;;;;;;9.57;80.10;99378.38;5078039;28;20059;-78
2021/01/08 01:08:59;;;;;;;8.30;5.25;;;;;;;9.53;80.58;99379.50;5078706;28;20025;-77
2021/01/08 01:11:27;;;;;;;12.25;6.00;;;;;;;9.51;81.22;99376.31;5079258;28;20033;-78
2021/01/08 01:13:55;;;;;;;17.02;6.90;;;;;;;9.46;82.13;99377.44;5078791;28;20021;-77
2021/01/08 01:16:24;;;;;;;11.45;6.30;;;;;;;9.43;82.58;99379.00;5078895;28;20047;-77
2021/01/08 01:18:52;;;;;;;11.98;6.53;;;;;;;9.41;82.81;99366.63;5079118;28;20028;-77
2021/01/08 01:21:21;;;;;;;10.23;6.43;;;;;;;9.40;82.96;99368.63;5079274;28;20036;-78
2021/01/08 01:23:48;;;;;;;13.45;6.43;;;;;;;9.39;83.40;99367.03;5078438;28;20459;-77
2021/01/08 01:26:14;;;;;;;12.00;6.25;;;;;;;9.38;83.97;99359.88;5078762;28;20063;-77
2021/01/08 01:28:40;;;;;;;16.98;6.97;;;;;;;9.36;83.92;99362.22;5079597;28;20025;-78
2021/01/08 01:31:06;;;;;;;9.85;6.88;;;;;;;9.39;84.13;99350.38;5079994;28;20025;-77
2021/01/08 01:33:32;;;;;;;15.57;7.68;;;;;;;9.41;83.68;99347.22;5079379;28;20044;-77
2021/01/08 01:36:09;;;;;;;12.50;7.03;;;;;;;9.44;83.80;99341.72;5063281;28;20047;-77
2021/01/08 01:38:37;;;;;;;9.45;5.50;;;;;;;9.41;84.13;99344.44;5081516;28;20028;-78
2021/01/08 01:41:04;;;;;;;9.30;6.20;;;;;;;9.36;84.08;99347.53;5079478;28;20054;-77
2021/01/08 01:43:30;;;;;;;10.27;5.97;;;;;;;9.37;84.33;99351.91;5079685;28;20026;-78
2021/01/08 01:45:56;;;;;;;9.85;5.90;;;;;;;9.42;84.46;99346.81;5078803;28;20046;-78
2021/01/08 01:48:23;;;;;;;8.88;5.18;;;;;;;9.39;84.56;99338.47;5079741;28;20063;-78
2021/01/08 01:50:50;;;;;;;11.95;6.18;;;;;;;9.41;84.36;99355.53;5078713;28;20104;-77
2021/01/08 01:53:16;;;;;;;14.70;5.93;;;;;;;9.42;84.78;99348.81;5078578;28;20467;-78
2021/01/08 01:55:43;;;;;;;10.90;5.30;;;;;;;9.65;84.01;99343.19;5079308;28;20024;-78
2021/01/08 01:58:09;;;;;;;10.88;5.50;;;;;;;9.57;84.12;99336.72;5079265;28;20016;-78
2021/01/08 02:00:34;;;;;;;11.77;5.00;;;;;;;9.52;83.99;99325.13;5079864;28;20036;-78
2021/01/08 02:03:13;;;;;;;12.93;5.50;;;;;;;9.54;84.06;99328.34;5078836;28;20039;-78
2021/01/08 02:05:40;;;;;;;9.50;5.10;;;;;;;9.59;84.38;99331.59;5078957;28;20028;-77
2021/01/08 02:08:12;;;;;;;9.63;5.03;;;;;;;9.69;83.50;99325.38;5079157;28;20379;-78
2021/01/08 02:10:49;;;;;;;12.02;5.38;;;;;;;9.74;83.43;99332.56;5077426;28;20538;-78
2021/01/08 02:13:23;;;;;;;11.10;5.10;;;;;;;9.80;82.28;99335.81;5077857;28;20024;-78
2021/01/08 02:15:52;;;;;;;8.95;5.18;;;;;;;9.75;82.83;99323.06;5077422;28;20036;-78
2021/01/08 02:18:19;;;;;;;12.70;5.43;;;;;;;9.78;83.34;99322.31;5079194;28;20034;-78
2021/01/08 02:20:47;;;;;;;14.95;5.47;;;;;;;9.75;83.34;99319.47;5077674;28;20050;-78
2021/01/08 02:23:50;;;;;;;7.63;4.97;;;;;;;9.71;83.74;99311.91;5077337;28;20028;-78
2021/01/08 02:26:18;;;;;;;7.38;4.03;;;;;;;9.68;83.57;99307.09;5072047;28;20045;-78
2021/01/08 02:28:45;;;;;;;9.65;4.63;;;;;;;9.69;84.19;99302.34;5078149;28;20032;-78
2021/01/08 02:31:12;;;;;;;12.38;6.90;;;;;;;9.71;83.83;99300.00;5077853;28;20471;-78
2021/01/08 02:33:38;;;;;;;12.25;5.50;;;;;;;9.78;84.19;99299.28;5077493;28;20071;-78
2021/01/08 02:36:04;;;;;;;10.32;5.78;;;;;;;9.77;83.42;99309.59;5077386;28;20029;-78
2021/01/08 02:38:30;;;;;;;19.92;10.48;;;;;;;9.76;84.04;99301.66;5061307;28;20024;-78
2021/01/08 02:40:58;;;;;;;17.27;10.60;;;;;;;9.60;84.62;99285.19;5080309;28;20508;-78
2021/01/08 02:43:26;;;;;;;21.08;9.20;;;;;;;9.66;84.50;99303.91;5080535;28;20508;-78
2021/01/08 02:45:53;;;;;;;18.90;11.00;;;;;;;9.64;84.79;99309.06;5080327;28;20031;-78
2021/01/08 02:48:19;;;;;;;22.80;9.63;;;;;;;9.65;85.62;99312.63;5081141;28;20446;-78
2021/01/08 02:50:46;;;;;;;15.88;8.00;;;;;;;9.60;85.70;99312.97;5081004;28;20039;-78
2021/01/08 02:53:14;;;;;;;12.45;7.03;;;;;;;9.60;86.04;99326.84;5081308;28;20378;-78
2021/01/08 02:56:12;;;;;;;10.02;6.32;;;;;;;9.57;85.87;99324.81;5081082;28;20120;-77
2021/01/08 02:58:39;;;;;;;11.73;7.72;;;;;;;9.60;85.99;99319.31;5080372;28;20043;-77
2021/01/08 03:01:07;;;;;;;14.45;6.43;;;;;;;9.50;86.13;99319.16;5080439;28;20032;-78
2021/01/08 03:03:34;;;;;;;7.00;5.00;;;;;;;9.52;86.31;99322.38;5080983;28;20043;-78
2021/01/08 03:06:03;;;;;;;13.57;5.38;;;;;;;9.52;86.68;99320.38;5081689;28;20027;-77
2021/01/08 03:08:31;;;;;;;15.60;6.15;;;;;;;9.57;86.49;99316.47;5081867;28;20097;-78
2021/01/08 03:11:06;;;;;;;10.40;5.43;;;;;;;9.51;86.11;99321.56;5081478;28;20035;-78
2021/01/08 03:13:34;;;;;;;16.33;5.65;;;;;;;9.54;86.96;99318.03;5100567;28;20028;-79
2021/01/08 03:16:00;;;;;;;13.55;5.75;;;;;;;9.59;86.63;99328.03;5078484;28;20029;-78
2021/01/08 03:18:25;;;;;;;10.25;5.22;;;;;;;9.59;86.38;99320.50;5077590;28;20038;-78
2021/01/08 03:20:51;;;;;;;6.40;4.90;;;;;;;9.58;86.53;99312.53;5077233;28;20475;-78
2021/01/08 03:23:17;;;;;;;9.40;4.25;;;;;;;9.60;86.58;99321.28;5077028;28;20024;-78
2021/01/08 03:25:42;;;;;;;7.00;4.15;;;;;;;9.60;86.90;99326.84;5077293;28;20035;-78
2021/01/08 03:28:08;;;;;;;13.02;4.72;;;;;;;9.68;86.77;99322.97;5077046;28;20086;-78
2021/01/08 03:30:33;;;;;;;11.20;4.60;;;;;;;9.67;86.16;99326.94;5077214;28;20076;-78
2021/01/08 03:33:02;;;;;;;11.55;4.25;;;;;;;9.75;86.59;99327.81;5077348;28;20055;-78
2021/01/08 03:35:27;;;;;;;12.38;5.07;;;;;;;9.79;85.66;99321.13;5077462;28;20057;-78
2021/01/08 03:37:53;;;;;;;12.15;3.88;;;;;;;9.86;85.71;99323.19;5077130;28;20352;-78
2021/01/08 03:40:19;;;;;;;10.60;4.93;;;;;;;9.92;85.29;99324.47;5077861;28;20093;-78
2021/01/08 03:42:44;;;;;;;12.93;7.60;;;;;;;9.95;85.09;99330.03;5073674;28;20131;-78
2021/01/08 03:45:10;;;;;;;23.40;14.38;;;;;;;9.95;84.89;99327.25;5074145;28;20028;-78
2021/01/08 03:47:36;;;;;;;33.30;18.92;;;;;;;10.21;84.21;99326.38;5074300;28;20047;-78
2021/01/08 03:50:02;;;;;;;28.83;17.73;;;;;;;10.46;82.13;99328.63;5075593;28;20025;-78
2021/01/08 03:52:37;;;;;;;47.80;28.48;;;;;;;10.55;82.71;99325.56;5088286;28;20092;-78
2021/01/08 03:55:03;;;;;;;21.23;12.05;;;;;;;10.26;83.43;99324.47;5077366;28;20036;-78
2021/01/08 03:57:28;;;;;;;44.67;25.48;;;;;;;10.26;84.11;99330.03;5075947;28;20024;-78
2021/01/08 03:59:54;;;;;;;16.90;9.30;;;;;;;10.11;83.73;99323.47;5075447;28;20033;-78
2021/01/08 04:02:20;;;;;;;33.03;18.15;;;;;;;10.01;84.42;99332.47;5075566;28;20029;-78
2021/01/08 04:04:45;;;;;;;29.30;18.40;;;;;;;9.94;85.07;99336.78;5075683;28;20495;-78
2021/01/08 04:07:11;;;;;;;23.13;12.50;;;;;;;9.86;85.39;99326.78;5075148;28;20027;-78
2021/01/08 04:09:36;;;;;;;22.70;17.63;;;;;;;9.82;85.39;99316.78;5075442;28;20033;-78
2021/01/08 04:12:02;;;;;;;34.42;25.77;;;;;;;9.81;85.65;99326.31;5076552;28;20041;-78
2021/01/08 04:14:28;;;;;;;20.35;13.52;;;;;;;9.94;84.85;99325.66;5079038;28;20032;-77
2021/01/08 04:16:53;;;;;;;19.52;11.50;;;;;;;9.82;84.92;99317.59;5079373;28;20358;-78
2021/01/08 04:19:19;;;;;;;36.83;24.98;;;;;;;9.79;85.57;99312.78;5079540;28;20066;-78
2021/01/08 04:21:46;;;;;;;31.15;18.05;;;;;;;9.69;85.43;99310.69;5079464;28;20480;-78
2021/01/08 04:24:12;;;;;;;44.83;30.42;;;;;;;9.61;85.84;99309.78;5079833;28;20055;-79
2021/01/08 04:26:38;;;;;;;59.47;41.85;;;;;;;9.63;85.94;99331.63;5078785;28;20467;-78
2021/01/08 04:29:03;;;;;;;32.25;20.15;;;;;;;9.61;86.11;99325.66;5062307;28;20037;-78
2021/01/08 04:31:29;;;;;;;51.15;35.65;;;;;;;9.56;85.71;99328.78;5078650;28;20028;-78
2021/01/08 04:33:54;;;;;;;34.92;25.23;;;;;;;9.51;86.54;99321.56;5079383;28;20028;-78
2021/01/08 04:36:20;;;;;;;28.83;17.17;;;;;;;9.56;86.66;99314.88;5078544;28;20039;-78
2021/01/08 04:38:46;;;;;;;24.52;14.52;;;;;;;9.73;86.18;99317.09;5079087;28;20096;-78
2021/01/08 04:41:12;;;;;;;17.58;9.02;;;;;;;9.86;85.38;99312.09;5079568;28;20093;-78
2021/01/08 04:43:38;;;;;;;19.52;10.60;;;;;;;9.71;84.78;99305.56;5079660;28;20021;-78
2021/01/08 04:46:07;;;;;;;18.70;9.73;;;;;;;9.78;84.28;99316.75;5079275;28;20035;-77
2021/01/08 04:48:34;;;;;;;11.57;8.45;;;;;;;9.77;84.07;99323.50;5079541;28;20115;-78
2021/01/08 04:51:03;;;;;;;14.25;8.25;;;;;;;9.66;84.52;99322.56;5079076;28;20144;-78
2021/01/08 04:53:29;;;;;;;21.63;10.68;;;;;;;9.50;85.23;99319.16;5081563;28;20029;-77
2021/01/08 04:55:56;;;;;;;14.48;8.85;;;;;;;9.59;83.93;99325.25;5081462;28;20029;-78
2021/01/08 04:58:25;;;;;;;23.05;11.90;;;;;;;9.45;84.60;99340.53;5079966;28;20024;-78
2021/01/08 05:00:51;;;;;;;22.73;11.18;;;;;;;9.42;85.78;99335.72;5081563;28;20056;-77
2021/01/08 05:03:18;;;;;;;10.60;6.43;;;;;;;9.36;84.49;99334.44;5081456;28;20025;-78
2021/01/08 05:05:43;;;;;;;10.88;7.15;;;;;;;9.30;85.43;99337.94;5081502;28;20120;-78
2021/01/08 05:08:09;;;;;;;8.30;6.40;;;;;;;9.26;84.94;99335.09;5082603;28;20119;-78
2021/01/08 05:10:36;;;;;;;9.40;6.07;;;;;;;9.06;85.24;99345.53;5064684;28;20032;-78
2021/01/08 05:13:02;;;;;;;15.63;6.28;;;;;;;8.97;85.73;99344.19;5081328;28;20032;-78
2021/01/08 05:15:29;;;;;;;8.98;5.60;;;;;;;8.98;86.40;99348.53;5082733;28;20036;-78
2021/01/08 05:17:55;;;;;;;11.85;6.78;;;;;;;8.92;86.04;99353.59;5082074;28;20378;-77
2021/01/08 05:20:21;;;;;;;10.35;5.28;;;;;;;8.93;85.83;99344.13;5082140;28;20056;-78
2021/01/08 05:22:49;;;;;;;8.18;4.75;;;;;;;9.04;85.38;99349.81;5082054;28;20032;-78
2021/01/08 05:25:15;;;;;;;5.95;4.95;;;;;;;9.01;85.26;99367.25;5081315;28;20047;-78
2021/01/08 05:27:41;;;;;;;5.80;4.40;;;;;;;8.88;85.46;99370.19;5082038;28;20123;-78
2021/01/08 05:30:16;;;;;;;9.07;5.03;;;;;;;8.96;85.88;99370.31;5082621;28;20032;-78
2021/01/08 05:32:42;;;;;;;6.93;5.15;;;;;;;8.88;85.53;99372.97;5082176;28;20021;-78
2021/01/08 05:35:13;;;;;;;8.20;5.80;;;;;;;8.57;85.64;99326.06;5084365;28;20099;-79
2021/01/08 05:37:44;;;;;;;7.97;5.93;;;;;;;8.74;86.52;99383.03;5083869;28;20032;-77
2021/01/08 05:40:11;;;;;;;7.95;5.50;;;;;;;8.71;86.83;99387.34;5064876;28;20033;-78
2021/01/08 05:42:48;;;;;;;7.18;5.22;;;;;;;8.66;87.52;99391.22;5078733;28;20080;-78
2021/01/08 05:45:14;;;;;;;8.90;5.78;;;;;;;8.66;87.49;99398.72;5079089;28;20035;-78
2021/01/08 05:47:40;;;;;;;7.78;5.40;;;;;;;8.66;87.45;99391.22;5079129;28;20028;-78
2021/01/08 05:50:07;;;;;;;9.40;6.15;;;;;;;8.65;87.39;99388.81;5079284;28;20125;-78
2021/01/08 05:52:36;;;;;;;12.68;6.20;;;;;;;8.70;88.00;99384.94;5077278;28;20506;-77
2021/01/08 05:55:10;;;;;;;10.43;7.35;;;;;;;8.74;87.43;99380.28;5075203;28;20024;-78
2021/01/08 05:57:36;;;;;;;7.50;4.25;;;;;;;8.80;86.85;99379.56;5075859;28;20108;-78
2021/01/08 06:00:04;;;;;;;7.50;4.35;;;;;;;8.63;87.15;99346.81;5075939;28;20040;-78
2021/01/08 06:02:31;;;;;;;11.57;8.38;;;;;;;8.88;86.74;99384.06;5075465;28;20070;-78
2021/01/08 06:04:59;;;;;;;12.02;5.95;;;;;;;8.79;86.45;99354.97;5076200;28;20024;-77
2021/01/08 06:07:27;;;;;;;16.80;9.25;;;;;;;9.26;85.19;99387.84;5075713;28;20486;-78
2021/01/08 06:09:59;;;;;;;12.15;6.35;;;;;;;9.17;85.14;99392.88;5075403;28;20052;-78
2021/01/08 06:12:24;;;;;;;9.82;4.72;;;;;;;9.13;85.38;99401.13;5074547;28;20358;-78
2021/01/08 06:14:51;;;;;;;9.43;4.35;;;;;;;9.04;85.82;99411.66;5074048;28;20123;-77
2021/01/08 06:17:19;;;;;;;7.72;5.25;;;;;;;8.88;85.48;99414.56;5073657;28;20122;-78
2021/01/08 06:19:46;;;;;;;8.13;5.32;;;;;;;8.81;86.04;99411.69;5075531;28;20537;-77
2021/01/08 06:22:12;;;;;;;8.05;5.88;;;;;;;8.77;86.79;99423.88;5075846;28;20382;-78
2021/01/08 06:24:38;;;;;;;5.85;4.95;;;;;;;8.79;86.56;99425.13;5075762;28;20031;-78
2021/01/08 06:27:04;;;;;;;11.43;6.43;;;;;;;8.75;86.00;99406.81;5075264;28;20029;-78
2021/01/08 06:29:33;;;;;;;7.53;6.50;;;;;;;8.62;86.65;99418.06;5075076;28;20032;-78
2021/01/08 06:32:16;;;;;;;9.90;6.53;;;;;;;8.49;86.50;99413.09;5075490;28;20028;-78
2021/01/08 06:34:46;;;;;;;10.60;7.20;;;;;;;8.47;86.85;99421.78;5074854;28;20032;-78
2021/01/08 06:37:17;;;;;;;10.13;6.43;;;;;;;8.47;87.69;99443.13;5076250;28;20044;-78
2021/01/08 06:39:46;;;;;;;17.80;12.85;;;;;;;8.40;87.61;99439.06;5076091;28;20035;-77
2021/01/08 06:42:28;;;;;;;24.83;11.95;;;;;;;8.44;88.06;99449.41;5076270;28;20070;-77
2021/01/08 06:44:55;;;;;;;9.43;6.95;;;;;;;8.54;88.29;99443.28;5076239;28;20371;-77
2021/01/08 06:47:21;;;;;;;13.82;7.18;;;;;;;8.57;88.25;99451.66;5076060;28;20028;-78
2021/01/08 06:49:51;;;;;;;8.68;6.55;;;;;;;8.37;87.63;99450.88;5075756;28;20054;-77
2021/01/08 06:52:17;;;;;;;15.93;7.97;;;;;;;8.52;87.86;99457.53;5077154;28;20021;-77
2021/01/08 06:54:43;;;;;;;12.52;6.70;;;;;;;8.49;87.38;99465.75;5076823;28;20024;-78
2021/01/08 06:57:19;;;;;;;12.40;7.75;;;;;;;8.42;87.39;99465.63;5060874;28;20060;-77
2021/01/08 07:00:04;;;;;;;8.63;6.35;;;;;;;8.45;88.21;99473.19;5078774;28;20032;-78
2021/01/08 07:02:33;;;;;;;12.07;7.32;;;;;;;8.34;87.61;99473.75;5060703;28;20044;-78
2021/01/08 07:05:00;;;;;;;11.85;7.75;;;;;;;8.27;88.09;99468.06;5079304;28;20020;-78
2021/01/08 07:07:28;;;;;;;10.75;8.45;;;;;;;8.24;88.40;99463.25;5063721;28;20048;-77
2021/01/08 07:09:55;;;;;;;12.07;8.18;;;;;;;8.25;88.27;99451.00;5080132;28;20481;-77
2021/01/08 07:12:25;;;;;;;14.43;9.52;;;;;;;8.31;88.72;99457.03;5062432;28;20044;-78
2021/01/08 07:14:51;;;;;;;13.27;9.57;;;;;;;8.32;88.75;99459.47;5078623;28;20028;-77
2021/01/08 07:17:28;;;;;;;13.27;9.45;;;;;;;8.36;88.50;99463.16;5080572;28;20030;-78
2021/01/08 07:19:54;;;;;;;12.18;9.52;;;;;;;8.42;88.78;99469.19;5064102;28;20479;-77
2021/01/08 07:22:20;;;;;;;15.23;12.23;;;;;;;8.62;88.33;99472.72;5080684;28;20035;-78
2021/01/08 07:24:50;;;;;;;33.78;24.75;;;;;;;8.56;87.10;99468.66;5079373;28;20459;-77
2021/01/08 07:27:16;;;;;;;21.38;14.27;;;;;;;8.66;86.69;99468.06;5077267;28;20035;-77
2021/01/08 07:29:56;;;;;;;16.67;12.88;;;;;;;8.75;86.32;99449.22;5078865;28;20032;-78
2021/01/08 07:32:36;;;;;;;17.23;13.20;;;;;;;8.82;85.96;99432.69;5076106;28;20039;-77
2021/01/08 07:35:31;;;;;;;12.38;10.50;;;;;;;8.92;85.50;99440.41;5074903;28;20033;-77
2021/01/08 07:37:59;;;;;;;15.80;11.38;;;;;;;9.45;85.54;99448.81;5075054;28;20059;-78
2021/01/08 07:40:26;;;;;;;14.20;12.10;;;;;;;9.63;84.98;99462.16;5075818;28;20032;-78
2021/01/08 07:43:09;;;;;;;17.40;11.40;;;;;;;10.84;81.99;99460.94;5096880;28;20052;-78
2021/01/08 07:45:47;;;;;;;36.55;24.67;;;;;;;11.94;76.68;99449.91;5079926;28;20406;-77
2021/01/08 07:48:17;;;;;;;12.45;9.93;;;;;;;12.84;72.65;99462.22;5083693;28;20071;-77
2021/01/08 07:50:50;;;;;;;13.18;10.50;;;;;;;13.56;69.81;99479.88;5083638;28;20032;-77
2021/01/08 07:53:50;;;;;;;12.43;10.35;;;;;;;14.06;68.54;99491.78;5082932;28;20090;-77
2021/01/08 07:56:21;;;;;;;16.65;10.00;;;;;;;13.59;68.43;99499.44;5084147;28;20090;-77
2021/01/08 07:59:07;;;;;;;21.67;15.02;;;;;;;13.27;70.24;99495.84;5083873;28;20035;-77
2021/01/08 08:01:34;;;;;;;16.65;12.88;;;;;;;12.99;70.81;99494.53;5083308;28;20075;-78
2021/01/08 08:04:07;;;;;;;17.15;12.02;;;;;;;13.42;71.54;99497.41;5084872;28;20073;-78
2021/01/08 08:06:40;;;;;;;18.85;11.65;;;;;;;14.50;67.39;99493.28;5081801;28;20039;-78
2021/01/08 08:09:16;;;;;;;14.40;11.40;;;;;;;15.42;64.74;99491.91;5082040;28;20056;-77
2021/01/08 08:11:42;;;;;;;20.17;12.70;;;;;;;16.04;62.81;99495.81;5080481;28;20024;-77
2021/01/08 08:14:20;;;;;;;15.77;11.65;;;;;;;16.52;61.09;99500.50;5079198;28;20550;-80
2021/01/08 08:16:46;;;;;;;13.15;9.95;;;;;;;17.04;60.63;99488.97;5080259;28;20032;-78
2021/01/08 08:19:13;;;;;;;12.82;8.95;;;;;;;17.20;59.77;99489.13;5079018;28;20027;-78
2021/01/08 08:21:46;;;;;;;12.07;8.10;;;;;;;17.92;57.69;99494.41;5078973;28;20398;-79
2021/01/08 08:24:14;;;;;;;12.25;8.13;;;;;;;18.65;55.56;99503.09;5078689;28;20024;-78
2021/01/08 08:26:40;;;;;;;15.38;7.90;;;;;;;18.90;53.87;99505.38;5078510;28;20062;-78
2021/01/08 08:29:10;;;;;;;8.38;5.05;;;;;;;19.13;51.86;99505.28;5078840;28;20039;-74
2021/01/08 08:31:46;;;;;;;11.02;5.03;;;;;;;19.19;51.81;99502.75;5078097;28;20085;-76
2021/01/08 08:34:14;;;;;;;7.90;4.35;;;;;;;19.43;51.53;99498.53;5079236;28;20130;-76
2021/01/08 08:36:40;;;;;;;13.55;9.27;;;;;;;19.70;51.22;99495.47;5078412;28;20378;-75
2021/01/08 08:39:05;;;;;;;6.25;4.45;;;;;;;19.55;51.13;99486.56;5078803;28;20064;-76
2021/01/08 08:41:34;;;;;;;13.07;8.05;;;;;;;19.20;50.41;99495.88;5078056;28;20193;-75
2021/01/08 08:44:15;;;;;;;11.15;6.93;;;;;;;19.28;52.02;99498.09;5061910;28;20048;-77
2021/01/08 08:47:08;;;;;;;125.28;84.55;;;;;;;19.36;51.16;99507.97;5096170;28;20056;-76
2021/01/08 08:49:37;;;;;;;34.20;23.67;;;;;;;19.31;51.81;99514.13;5075291;28;20504;-76
2021/01/08 08:52:05;;;;;;;22.13;14.73;;;;;;;19.55;51.72;99528.88;5078078;28;20024;-76
2021/01/08 08:54:37;;;;;;;12.15;6.32;;;;;;;19.74;50.12;99535.69;5077955;28;20020;-76
2021/01/08 08:57:04;;;;;;;12.43;6.45;;;;;;;19.77;50.84;99543.28;5078219;28;20073;-76
2021/01/08 08:59:41;;;;;;;10.63;6.07;;;;;;;19.18;51.39;99546.28;5076975;28;20054;-75
2021/01/08 09:02:21;;;;;;;14.27;7.10;;;;;;;19.17;52.00;99565.19;5077805;28;20056;-76
2021/01/08 09:04:51;;;;;;;11.57;5.90;;;;;;;18.03;53.05;99556.16;5077952;28;20044;-76
2021/01/08 09:07:22;;;;;;;10.00;5.50;;;;;;;16.80;57.77;99533.06;5078377;28;20568;-77
2021/01/08 09:09:58;;;;;;;11.63;5.75;;;;;;;16.56;59.03;99548.97;5077563;28;20024;-77
2021/01/08 09:12:26;;;;;;;12.95;6.78;;;;;;;15.68;62.58;99548.63;5077561;28;20031;-79
2021/01/08 09:15:02;;;;;;;11.85;8.98;;;;;;;14.97;64.70;99561.06;5077655;28;20035;-78
2021/01/08 09:17:35;;;;;;;12.52;9.55;;;;;;;14.66;66.12;99558.00;5077962;28;20063;-78
2021/01/08 09:20:04;;;;;;;11.47;8.93;;;;;;;14.23;66.62;99570.50;5078834;28;20047;-77
2021/01/08 09:22:35;;;;;;;15.02;10.00;;;;;;;13.91;68.20;99565.72;5078500;28;20127;-78
2021/01/08 09:25:01;;;;;;;13.40;11.38;;;;;;;13.68;69.22;99563.31;5078076;28;20035;-78
2021/01/08 09:27:28;;;;;;;13.23;10.13;;;;;;;13.39;70.04;99544.94;5078394;28;20028;-77
2021/01/08 09:29:53;;;;;;;19.45;13.90;;;;;;;13.26;70.78;99545.31;5077961;28;20073;-77
2021/01/08 09:32:33;;;;;;;16.42;11.75;;;;;;;12.98;72.11;99550.78;5078430;28;20036;-77
2021/01/08 09:35:02;;;;;;;13.32;11.18;;;;;;;12.92;72.73;99555.16;5078741;28;20031;-77
2021/01/08 09:37:37;;;;;;;21.38;14.13;;;;;;;12.50;74.04;99571.34;5077645;28;20124;-78
2021/01/08 09:40:14;;;;;;;21.83;13.93;;;;;;;12.22;75.78;99573.97;5078201;28;20028;-77
2021/01/08 09:42:40;;;;;;;19.98;14.25;;;;;;;12.17;75.68;99582.69;5078292;28;20048;-78
2021/01/08 09:45:17;;;;;;;23.75;16.08;;;;;;;11.96;76.90;99572.97;5078462;28;20537;-78
2021/01/08 09:47:42;;;;;;;27.38;15.02;;;;;;;12.00;77.01;99571.03;5077929;28;20043;-78
2021/01/08 09:50:09;;;;;;;29.17;14.38;;;;;;;11.73;76.86;99570.41;5078410;28;20024;-77
2021/01/08 09:52:34;;;;;;;19.13;13.65;;;;;;;11.86;76.92;99564.53;5078465;28;20028;-78
2021/01/08 09:55:00;;;;;;;17.38;11.25;;;;;;;11.92;76.51;99552.63;5078044;28;20028;-78
2021/01/08 09:57:36;;;;;;;21.73;15.77;;;;;;;11.99;76.75;99526.81;5079644;28;20104;-77
2021/01/08 10:00:06;;;;;;;20.45;14.57;;;;;;;11.85;76.58;99529.50;5078276;28;20024;-78
2021/01/08 10:02:42;;;;;;;12.93;9.65;;;;;;;11.72;77.17;99529.00;5096748;28;20040;-78
2021/01/08 10:05:24;;;;;;;19.65;13.50;;;;;;;11.66;76.94;99530.50;5078517;28;20020;-77
2021/01/08 10:07:51;;;;;;;25.77;14.43;;;;;;;11.60;76.99;99534.84;5078729;28;20039;-77
2021/01/08 10:10:36;;;;;;;10.82;9.27;;;;;;;11.54;76.64;99532.41;5078425;28;20486;-77
2021/01/08 10:13:03;;;;;;;24.02;12.15;;;;;;;11.55;76.80;99531.22;5079855;28;20028;-77
2021/01/08 10:15:43;;;;;;;20.80;14.32;;;;;;;11.69;76.56;99538.09;5080173;28;20111;-78
2021/01/08 10:18:21;;;;;;;21.20;13.52;;;;;;;11.42;76.93;99502.06;5080499;28;20093;-78
2021/01/08 10:21:07;;;;;;;17.20;13.38;;;;;;;11.68;77.04;99534.53;5081858;28;20020;-78
2021/01/08 10:23:40;;;;;;;17.02;12.65;;;;;;;11.54;77.07;99512.91;5081517;28;20024;-78
2021/01/08 10:26:16;;;;;;;14.52;10.57;;;;;;;11.54;77.67;99507.34;5081851;28;20466;-78
2021/01/08 10:28:52;;;;;;;14.07;8.38;;;;;;;11.52;76.70;99503.34;5100003;28;20024;-78
2021/01/08 10:31:19;;;;;;;13.43;9.05;;;;;;;11.46;76.80;99494.53;5081728;28;20032;-78
2021/01/08 10:33:45;;;;;;;11.48;8.50;;;;;;;11.52;76.17;99506.94;5081552;28;20028;-77
2021/01/08 10:36:12;;;;;;;12.02;9.23;;;;;;;11.63;76.09;99522.94;5081000;28;20377;-78
2021/01/08 10:38:38;;;;;;;11.38;9.32;;;;;;;11.68;75.76;99514.22;5097648;28;20035;-78
2021/01/08 10:41:04;;;;;;;19.67;11.50;;;;;;;11.84;75.54;99513.97;5074408;28;20060;-77
2021/01/08 10:43:32;;;;;;;33.58;18.98;;;;;;;12.09;74.86;99522.47;5073427;28;20420;-78
2021/01/08 10:45:58;;;;;;;19.50;15.00;;;;;;;12.31;74.55;99538.16;5073616;28;20067;-78
2021/01/08 10:48:24;;;;;;;27.55;19.35;;;;;;;12.80;72.69;99528.41;5073526;28;20043;-77
2021/01/08 10:50:50;;;;;;;21.73;14.77;;;;;;;13.21;71.28;99515.00;5073352;28;20475;-78
2021/01/08 10:53:15;;;;;;;17.23;13.02;;;;;;;13.47;70.34;99505.41;5073016;28;20120;-78
2021/01/08 10:55:45;;;;;;;17.35;12.05;;;;;;;13.76;69.58;99494.22;5073113;28;20059;-77
2021/01/08 10:58:10;;;;;;;14.43;11.88;;;;;;;13.81;68.66;99471.47;5072900;28;20024;-78
2021/01/08 11:00:36;;;;;;;12.63;10.55;;;;;;;13.87;69.17;99493.00;5073430;28;20024;-78
2021/01/08 11:03:01;;;;;;;13.50;11.30;;;;;;;13.87;68.95;99501.41;5072806;28;20020;-77
2021/01/08 11:05:27;;;;;;;14.20;9.65;;;;;;;13.59;68.29;99505.03;5073226;28;20028;-77
2021/01/08 11:07:52;;;;;;;19.35;11.25;;;;;;;13.44;67.88;99495.03;5072612;28;20486;-78
2021/01/08 11:10:18;;;;;;;11.65;8.57;;;;;;;13.18;68.82;99498.19;5073511;28;20047;-78
2021/01/08 11:12:44;;;;;;;8.23;7.30;;;;;;;13.16;69.47;99500.59;5072498;28;20029;-78
2021/01/08 11:15:10;;;;;;;12.48;7.93;;;;;;;13.11;69.07;99482.22;5072673;28;20025;-78
2021/01/08 11:17:36;;;;;;;9.85;8.85;;;;;;;12.92;68.37;99491.75;5073191;28;20027;-78
2021/01/08 11:20:02;;;;;;;5.68;4.93;;;;;;;12.84;69.63;99496.53;5072871;28;20115;-77
2021/01/08 11:22:28;;;;;;;5.53;4.93;;;;;;;12.67;69.75;99488.06;5072829;28;20048;-78
2021/01/08 11:24:54;;;;;;;7.72;4.57;;;;;;;12.44;70.32;99485.63;5073195;28;20387;-78
2021/01/08 11:27:20;;;;;;;6.32;5.72;;;;;;;12.41;71.01;99476.06;5072768;28;20056;-78
2021/01/08 11:29:45;;;;;;;7.57;6.25;;;;;;;12.31;71.72;99468.44;5073135;28;20056;-77
2021/01/08 11:32:11;;;;;;;10.23;7.22;;;;;;;12.11;72.34;99459.56;5073397;28;20033;-78
2021/01/08 11:34:40;;;;;;;12.27;10.40;;;;;;;12.16;72.94;99467.56;5073514;28;20032;-78
2021/01/08 11:37:07;;;;;;;11.98;8.27;;;;;;;12.15;72.67;99456.81;5073068;28;20449;-78